Terminal Aerodrome Forecast
Issued by NWS

Home | Current Version | Previous Version | Text Only | Print | Product List | Glossary On
Versions: 1 2 3 4 5 6 7 8 9 10 11 12
960
FTUS44 KLZK 131121
TAFADF
TAF
KADF 131121Z 1312/1412 VRB03KT P6SM SCT100 BKN250
     FM131400 08007KT P6SM SCT250
     FM140600 10005KT P6SM BKN050=

USA.gov is the U.S. government's official web portal to all federal, state and local government web resources and services.